Challis, Idaho
Current Conditions -  °F | °C
As of 5:55 AM on Tuesday 21 Oct 2014 (Local Time) from KLLJ Reporting Station
Overcast Overcast  
Wind Chill: 49°   Ceiling: 5500
Heat Index: 49°   Visibility: 10mi
Dew Point: 42°   Wind: 3mph
Humidity: 77%   Direction: NA
Pressure: 29.77"   Gusts: NA
Location:  44.5°N, 114.23°W
Report Text: KLLJ 211155Z AUTO VRB03KT 10SM BKN055 BKN070 OVC085 09/06 A2977 RMK AO2 SLP032 60002 70002 T00940056 10122 20083 57005
Loading
Personal Weather Stations






























Interactive Weather Map
Tropical Storm Tracking
New forecast layout! Learn more

10-Day Weather Forecast

Advertisements
Track Severe Weather on mobile